createdAt,value
2023-03-03T00:01:20.498Z,55.58
2023-03-03T00:03:48.985Z,55.20
2023-03-03T00:06:19.231Z,55.88
2023-03-03T00:08:47.578Z,56.13
2023-03-03T00:11:15.945Z,56.21
2023-03-03T00:13:48.541Z,56.53
2023-03-03T00:16:23.173Z,56.51
2023-03-03T00:18:52.531Z,57.15
2023-03-03T00:21:29.131Z,57.70
2023-03-03T00:24:13.680Z,56.59
2023-03-03T00:26:43.531Z,57.38
2023-03-03T00:29:33.143Z,56.90
2023-03-03T00:32:17.747Z,58.36
2023-03-03T00:34:46.491Z,57.50
2023-03-03T00:37:29.271Z,57.68
2023-03-03T00:40:15.648Z,57.79
2023-03-03T00:42:48.200Z,58.62
2023-03-03T00:45:33.026Z,58.83
2023-03-03T00:48:17.362Z,58.48
2023-03-03T00:50:45.997Z,58.69
2023-03-03T00:53:18.310Z,58.48
2023-03-03T00:55:47.792Z,59.40
2023-03-03T00:58:16.248Z,59.33
2023-03-03T01:00:44.436Z,59.06
2023-03-03T01:03:16.958Z,58.66
2023-03-03T01:05:45.120Z,58.31
2023-03-03T01:08:15.802Z,58.74
2023-03-03T01:13:39.083Z,58.50
2023-03-03T01:16:08.779Z,58.52
2023-03-03T01:18:37.000Z,58.92
2023-03-03T01:21:05.695Z,58.95
2023-03-03T01:23:35.827Z,58.76
2023-03-03T01:26:04.096Z,59.01
2023-03-03T01:28:32.234Z,59.00
2023-03-03T01:31:04.657Z,58.64
2023-03-03T01:33:33.296Z,57.68
2023-03-03T01:36:01.360Z,58.13
2023-03-03T01:38:29.764Z,58.48
2023-03-03T01:41:01.114Z,58.88
2023-03-03T01:43:31.635Z,58.26
2023-03-03T01:46:35.438Z,57.89
2023-03-03T01:49:08.394Z,57.65
2023-03-03T01:51:41.131Z,57.55
2023-03-03T01:54:16.629Z,57.47
2023-03-03T01:56:46.420Z,57.04
2023-03-03T01:59:20.083Z,57.34
2023-03-03T02:01:49.787Z,57.67
2023-03-03T02:04:18.702Z,56.56
2023-03-03T02:06:52.805Z,56.70
2023-03-03T02:09:30.727Z,57.21
2023-03-03T02:12:05.579Z,57.53
2023-03-03T02:14:33.737Z,57.55
2023-03-03T02:17:01.901Z,57.37
2023-03-03T02:19:38.028Z,57.88
2023-03-03T02:22:06.079Z,57.12
2023-03-03T02:24:41.299Z,57.35
2023-03-03T02:27:10.642Z,57.62
2023-03-03T02:29:38.785Z,58.00
2023-03-03T02:32:07.753Z,58.60
2023-03-03T02:34:47.418Z,58.62
2023-03-03T02:37:15.899Z,58.30
2023-03-03T02:39:45.232Z,59.18
2023-03-03T02:42:21.793Z,59.38
2023-03-03T02:44:50.045Z,59.11
2023-03-03T02:47:18.308Z,59.53
2023-03-03T02:49:47.208Z,59.18
2023-03-03T02:52:18.151Z,59.40
2023-03-03T02:54:46.974Z,59.17
2023-03-03T02:57:16.528Z,60.01
2023-03-03T02:59:44.769Z,59.79
2023-03-03T03:02:15.053Z,59.72
2023-03-03T03:04:43.251Z,59.65
2023-03-03T03:07:11.968Z,61.26
2023-03-03T03:09:40.655Z,61.54
2023-03-03T03:12:08.652Z,61.29
2023-03-03T03:14:38.195Z,61.64
2023-03-03T03:17:06.898Z,61.76
2023-03-03T03:19:34.929Z,62.68
2023-03-03T03:22:02.787Z,62.40
2023-03-03T03:24:31.442Z,62.48
2023-03-03T03:26:59.214Z,62.37
2023-03-03T03:29:27.331Z,62.56
2023-03-03T03:31:57.650Z,62.47
2023-03-03T03:34:26.036Z,63.14
2023-03-03T03:36:54.117Z,62.96
2023-03-03T03:39:24.021Z,62.57
2023-03-03T03:41:51.980Z,63.38
2023-03-03T03:44:20.258Z,63.14
2023-03-03T03:46:48.982Z,63.14
2023-03-03T03:49:20.731Z,63.60
2023-03-03T03:51:49.554Z,63.79
2023-03-03T03:54:17.677Z,63.70
2023-03-03T03:56:45.667Z,64.09
2023-03-03T03:59:14.496Z,63.56
2023-03-03T04:01:42.447Z,63.54
2023-03-03T04:04:10.165Z,63.39
2023-03-03T04:06:40.287Z,63.62
2023-03-03T04:09:08.508Z,63.25
2023-03-03T04:11:36.635Z,63.88
2023-03-03T04:14:05.591Z,64.01
2023-03-03T04:16:33.880Z,64.34
2023-03-03T04:19:01.989Z,63.26
2023-03-03T04:21:30.931Z,63.91
2023-03-03T04:24:00.681Z,64.40
2023-03-03T04:26:28.506Z,63.66
2023-03-03T04:28:56.990Z,63.33
2023-03-03T04:31:25.756Z,63.53
2023-03-03T04:33:53.978Z,63.65
2023-03-03T04:36:23.114Z,63.61
2023-03-03T04:38:51.579Z,64.17
2023-03-03T04:41:21.144Z,64.81
2023-03-03T04:43:49.640Z,64.53
2023-03-03T04:46:17.716Z,64.40
2023-03-03T04:48:45.952Z,64.94
2023-03-03T04:51:15.697Z,64.86
2023-03-03T04:53:43.496Z,65.37
2023-03-03T04:56:11.323Z,64.96
2023-03-03T04:58:41.670Z,65.11
2023-03-03T05:01:13.877Z,64.74
2023-03-03T05:03:42.902Z,64.96
2023-03-03T05:06:10.756Z,66.19
2023-03-03T05:08:38.997Z,66.00
2023-03-03T05:11:08.066Z,66.38
2023-03-03T05:13:36.232Z,66.00
2023-03-03T05:16:06.304Z,65.56
2023-03-03T05:18:34.633Z,65.94
2023-03-03T05:21:02.746Z,65.05
2023-03-03T05:23:31.447Z,66.89
2023-03-03T05:26:00.219Z,65.82
2023-03-03T05:28:28.511Z,65.71
2023-03-03T05:30:56.648Z,65.87
2023-03-03T05:33:27.001Z,66.05
2023-03-03T05:35:55.919Z,66.06
2023-03-03T05:38:24.499Z,65.32
2023-03-03T05:40:53.778Z,65.07
2023-03-03T05:43:22.001Z,64.93
2023-03-03T05:45:55.962Z,65.27
2023-03-03T05:48:25.972Z,64.21
2023-03-03T05:50:53.954Z,64.55
2023-03-03T05:53:22.215Z,65.48
2023-03-03T05:55:50.111Z,65.12
2023-03-03T05:58:18.065Z,64.73
2023-03-03T06:00:46.916Z,65.17
2023-03-03T06:03:15.016Z,64.80
2023-03-03T06:05:44.377Z,65.43
2023-03-03T06:08:13.237Z,65.92
2023-03-03T06:10:41.220Z,65.97
2023-03-03T06:13:09.230Z,65.95
2023-03-03T06:15:37.478Z,65.36
2023-03-03T06:18:05.573Z,65.54
2023-03-03T06:20:35.422Z,64.91
2023-03-03T06:23:05.291Z,66.03
2023-03-03T06:25:35.667Z,65.49
2023-03-03T06:28:04.084Z,65.39
2023-03-03T06:30:32.229Z,64.93
2023-03-03T06:33:00.232Z,64.72
2023-03-03T06:35:28.170Z,64.99
2023-03-03T06:37:56.688Z,64.41
2023-03-03T06:40:26.075Z,64.34
2023-03-03T06:42:53.890Z,64.21
2023-03-03T06:45:22.462Z,64.01
2023-03-03T06:47:50.861Z,64.48
2023-03-03T06:50:21.473Z,64.36
2023-03-03T06:52:50.069Z,63.96
2023-03-03T06:55:24.570Z,64.09
2023-03-03T06:57:56.484Z,64.30
2023-03-03T07:00:30.821Z,64.69
2023-03-03T07:03:01.948Z,64.50
2023-03-03T07:05:31.164Z,65.21
2023-03-03T07:07:59.175Z,64.90
2023-03-03T07:10:30.244Z,65.55
2023-03-03T07:13:19.550Z,66.34
2023-03-03T07:15:49.313Z,65.60
2023-03-03T07:18:32.707Z,65.93
2023-03-03T07:21:02.368Z,65.14
2023-03-03T07:23:33.055Z,65.79
2023-03-03T07:26:01.028Z,66.18
2023-03-03T07:28:33.452Z,65.74
2023-03-03T07:31:01.481Z,65.82
2023-03-03T07:33:32.900Z,67.09
2023-03-03T07:36:01.698Z,67.31
2023-03-03T07:38:38.407Z,67.15
2023-03-03T07:41:12.254Z,67.03
2023-03-03T07:43:49.702Z,66.47
2023-03-03T07:46:31.630Z,65.88
2023-03-03T07:49:01.221Z,66.06
2023-03-03T07:51:32.142Z,65.84
2023-03-03T07:54:28.759Z,65.38
2023-03-03T07:56:59.165Z,64.87
2023-03-03T07:59:28.749Z,64.55
2023-03-03T08:01:58.962Z,65.30
2023-03-03T08:04:33.133Z,64.49
2023-03-03T08:07:03.364Z,64.41
2023-03-03T08:09:40.576Z,64.59
2023-03-03T08:12:32.988Z,65.04
2023-03-03T08:15:17.838Z,65.39
2023-03-03T08:17:46.200Z,64.97
2023-03-03T08:20:53.445Z,64.60
2023-03-03T08:23:22.157Z,64.71
2023-03-03T08:25:51.530Z,65.76
2023-03-03T08:28:20.338Z,64.90
2023-03-03T08:30:50.366Z,65.15
2023-03-03T08:33:18.463Z,65.14
2023-03-03T08:35:47.053Z,64.70
2023-03-03T08:38:17.353Z,64.78
2023-03-03T08:40:45.427Z,64.91
2023-03-03T08:43:17.050Z,64.07
2023-03-03T08:45:47.139Z,64.05
2023-03-03T08:48:16.307Z,63.82
2023-03-03T08:50:45.044Z,64.06
2023-03-03T08:56:02.719Z,64.08
2023-03-03T08:58:35.413Z,64.91
2023-03-03T09:01:03.448Z,64.65
2023-03-03T09:03:33.088Z,64.67
2023-03-03T09:06:00.755Z,64.29
2023-03-03T09:08:28.446Z,63.98
2023-03-03T09:10:56.693Z,64.16
2023-03-03T09:13:25.879Z,63.74
2023-03-03T09:15:53.646Z,63.38
2023-03-03T09:18:23.813Z,64.43
2023-03-03T09:20:57.352Z,64.03
2023-03-03T09:23:36.261Z,64.08
2023-03-03T09:26:28.046Z,63.84
2023-03-03T09:29:18.613Z,64.06
2023-03-03T09:31:49.585Z,64.40
2023-03-03T09:34:22.363Z,63.48
2023-03-03T09:36:52.533Z,63.63
2023-03-03T09:39:21.741Z,63.49
2023-03-03T09:42:21.855Z,63.58
2023-03-03T09:45:27.992Z,63.10
2023-03-03T09:48:49.421Z,62.58
2023-03-03T09:51:36.502Z,62.65
2023-03-03T09:54:19.692Z,62.88
2023-03-03T09:56:54.160Z,62.88
2023-03-03T09:59:32.370Z,63.35
2023-03-03T10:02:17.056Z,63.32
2023-03-03T10:05:07.071Z,63.19
2023-03-03T10:07:44.890Z,64.04
2023-03-03T10:10:24.899Z,63.22
2023-03-03T10:13:07.742Z,63.44
2023-03-03T10:15:45.415Z,64.02
2023-03-03T10:18:25.882Z,63.71
2023-03-03T10:21:12.294Z,62.95
2023-03-03T10:23:56.295Z,63.07
2023-03-03T10:26:46.471Z,63.08
2023-03-03T10:29:30.437Z,62.83
2023-03-03T10:32:19.170Z,63.38
2023-03-03T10:35:00.770Z,62.92
2023-03-03T10:37:40.452Z,63.04
2023-03-03T10:40:14.209Z,62.99
2023-03-03T10:43:31.164Z,63.26
2023-03-03T10:46:21.744Z,63.64
2023-03-03T10:49:16.426Z,63.65
2023-03-03T10:52:08.634Z,63.53
2023-03-03T10:54:58.766Z,63.62
2023-03-03T10:57:36.232Z,62.74
2023-03-03T11:00:22.683Z,63.12
2023-03-03T11:03:37.523Z,63.84
2023-03-03T11:06:12.832Z,62.66
2023-03-03T11:08:45.235Z,63.18
2023-03-03T11:11:25.589Z,62.86
2023-03-03T11:14:00.975Z,63.40
2023-03-03T11:16:47.858Z,63.16
2023-03-03T11:19:52.709Z,63.41
2023-03-03T11:22:35.174Z,62.63
2023-03-03T11:25:16.485Z,62.32
2023-03-03T11:28:05.323Z,62.39
2023-03-03T11:30:46.211Z,62.03
2023-03-03T11:33:20.364Z,61.85
2023-03-03T11:36:01.132Z,62.47
2023-03-03T11:38:46.583Z,62.27
2023-03-03T11:41:24.422Z,62.10
2023-03-03T11:43:56.192Z,61.47
2023-03-03T11:46:27.851Z,61.92
2023-03-03T11:49:01.359Z,61.78
2023-03-03T11:51:42.131Z,61.29
2023-03-03T11:54:17.116Z,61.34
2023-03-03T11:56:46.789Z,60.38
2023-03-03T11:59:38.031Z,60.52
2023-03-03T12:02:22.487Z,60.46
2023-03-03T12:04:55.041Z,60.35
2023-03-03T12:07:35.169Z,60.33
2023-03-03T12:10:24.837Z,59.88
2023-03-03T12:12:57.720Z,60.37
2023-03-03T12:15:33.221Z,59.31
2023-03-03T12:18:24.317Z,59.09
2023-03-03T12:21:05.378Z,59.63
2023-03-03T12:23:53.346Z,59.05
2023-03-03T12:26:28.537Z,58.90
2023-03-03T12:29:00.194Z,59.11
2023-03-03T12:31:39.458Z,58.94
2023-03-03T12:34:16.848Z,58.62
2023-03-03T12:36:58.156Z,58.24
2023-03-03T12:39:39.275Z,57.64
2023-03-03T12:42:16.138Z,57.49
2023-03-03T12:44:52.075Z,58.18
2023-03-03T12:47:26.614Z,58.87
2023-03-03T12:50:08.299Z,58.39
2023-03-03T12:52:47.655Z,58.69
2023-03-03T12:55:26.712Z,57.65
2023-03-03T12:58:04.557Z,57.85
2023-03-03T13:00:44.731Z,57.72
2023-03-03T13:03:30.340Z,57.61
2023-03-03T13:06:05.939Z,57.47
2023-03-03T13:08:50.693Z,56.88
2023-03-03T13:11:34.047Z,55.49
2023-03-03T13:14:12.881Z,56.33
2023-03-03T13:16:45.685Z,56.23
2023-03-03T13:19:20.622Z,56.51
2023-03-03T13:21:51.950Z,56.07
2023-03-03T13:24:26.510Z,56.46
2023-03-03T13:27:00.799Z,56.40
2023-03-03T13:29:36.196Z,56.83
2023-03-03T13:32:13.331Z,55.86
2023-03-03T13:34:51.072Z,55.71
2023-03-03T13:37:22.821Z,55.64
2023-03-03T13:40:00.232Z,55.05
2023-03-03T13:42:36.181Z,55.56
2023-03-03T13:45:15.220Z,54.46
2023-03-03T13:47:49.940Z,54.12
2023-03-03T13:50:24.341Z,53.86
2023-03-03T13:53:06.544Z,54.60
2023-03-03T13:55:41.184Z,54.20
2023-03-03T13:58:19.723Z,54.04
2023-03-03T14:01:01.880Z,54.37
2023-03-03T14:03:55.205Z,55.31
2023-03-03T14:06:25.041Z,54.54
2023-03-03T14:09:21.134Z,54.67
2023-03-03T14:11:57.557Z,54.04
2023-03-03T14:14:37.678Z,53.28
2023-03-03T14:17:14.011Z,53.63
2023-03-03T14:19:45.820Z,53.74
2023-03-03T14:22:23.791Z,53.86
2023-03-03T14:25:00.795Z,53.27
2023-03-03T14:27:34.976Z,53.98
2023-03-03T14:30:29.002Z,53.59
2023-03-03T14:33:02.631Z,53.34
2023-03-03T14:35:33.416Z,53.79
2023-03-03T14:38:03.896Z,54.29
2023-03-03T14:40:33.413Z,53.99
2023-03-03T14:43:03.768Z,53.53
2023-03-03T14:45:36.819Z,54.01
2023-03-03T14:48:17.222Z,53.58
2023-03-03T14:50:51.190Z,52.40
2023-03-03T14:53:33.393Z,52.89
2023-03-03T14:56:17.926Z,53.06
2023-03-03T14:58:46.394Z,52.57
2023-03-03T15:01:24.324Z,53.28
2023-03-03T15:04:01.683Z,52.54
2023-03-03T15:06:34.606Z,52.69
2023-03-03T15:09:29.967Z,52.73
2023-03-03T15:11:59.576Z,52.96
2023-03-03T15:14:33.145Z,52.74
2023-03-03T15:17:21.465Z,52.69
2023-03-03T15:20:00.133Z,52.61
2023-03-03T15:22:44.365Z,52.54
2023-03-03T15:25:21.110Z,52.40
2023-03-03T15:27:53.422Z,52.54
2023-03-03T15:30:30.634Z,52.10
2023-03-03T15:33:06.057Z,52.91
2023-03-03T15:35:45.749Z,52.84
2023-03-03T15:38:19.697Z,52.91
2023-03-03T15:40:51.500Z,51.99
2023-03-03T15:43:27.760Z,52.16
2023-03-03T15:46:09.974Z,51.93
2023-03-03T15:48:52.924Z,52.41
2023-03-03T15:51:46.079Z,52.74
2023-03-03T15:54:37.022Z,52.71
2023-03-03T15:57:13.428Z,51.82
2023-03-03T16:00:16.057Z,52.24
2023-03-03T16:02:53.680Z,52.20
2023-03-03T16:05:25.353Z,52.67
2023-03-03T16:08:06.471Z,52.48
2023-03-03T16:10:45.250Z,52.62
2023-03-03T16:13:24.207Z,51.82
2023-03-03T16:16:08.245Z,52.31
2023-03-03T16:18:50.553Z,52.31
2023-03-03T16:21:31.119Z,52.24
2023-03-03T16:24:03.718Z,52.21
2023-03-03T16:26:43.356Z,52.43
2023-03-03T16:29:21.117Z,52.53
2023-03-03T16:31:54.402Z,52.48
2023-03-03T16:34:31.647Z,52.46
2023-03-03T16:37:08.209Z,52.43
2023-03-03T16:42:40.321Z,52.38
2023-03-03T16:45:25.340Z,52.23
2023-03-03T16:48:20.912Z,52.51
2023-03-03T16:51:00.328Z,52.75
2023-03-03T16:53:44.330Z,52.20
2023-03-03T16:56:18.999Z,51.95
2023-03-03T16:58:57.744Z,51.68
2023-03-03T17:01:34.681Z,52.43
2023-03-03T17:04:03.722Z,52.14
2023-03-03T17:06:41.511Z,51.82
2023-03-03T17:09:33.059Z,52.04
2023-03-03T17:12:15.084Z,52.46
2023-03-03T17:15:05.516Z,51.80
2023-03-03T17:17:43.092Z,52.75
2023-03-03T17:20:29.078Z,52.49
2023-03-03T17:23:12.290Z,52.23
2023-03-03T17:25:46.548Z,52.43
2023-03-03T17:28:27.750Z,52.59
2023-03-03T17:31:01.498Z,52.16
2023-03-03T17:33:44.796Z,52.77
2023-03-03T17:36:35.797Z,52.35
2023-03-03T17:39:20.385Z,52.33
2023-03-03T17:41:59.219Z,52.42
2023-03-03T17:44:35.552Z,52.26
2023-03-03T17:47:06.931Z,52.59
2023-03-03T17:50:05.668Z,52.45
2023-03-03T17:52:50.712Z,52.62
2023-03-03T17:55:36.888Z,52.26
2023-03-03T17:58:35.717Z,52.83
2023-03-03T18:01:15.633Z,52.34
2023-03-03T18:04:00.127Z,52.15
2023-03-03T18:06:44.124Z,52.87
2023-03-03T18:09:28.126Z,52.82
2023-03-03T18:12:05.337Z,53.03
2023-03-03T18:15:07.357Z,52.55
2023-03-03T18:17:41.597Z,52.20
2023-03-03T18:20:48.498Z,52.65
2023-03-03T18:23:43.593Z,52.33
2023-03-03T18:26:41.332Z,53.03
2023-03-03T18:29:21.213Z,52.25
2023-03-03T18:32:03.798Z,52.50
2023-03-03T18:34:37.878Z,52.97
2023-03-03T18:37:10.623Z,53.08
2023-03-03T18:39:46.093Z,52.85
2023-03-03T18:42:38.912Z,52.95
2023-03-03T18:45:50.432Z,52.41
2023-03-03T18:48:22.028Z,52.40
2023-03-03T18:50:53.110Z,52.49
2023-03-03T18:53:28.463Z,52.82
2023-03-03T18:55:58.468Z,52.20
2023-03-03T18:58:33.962Z,52.07
2023-03-03T19:01:12.842Z,51.98
2023-03-03T19:04:10.209Z,52.79
2023-03-03T19:06:58.082Z,51.85
2023-03-03T19:09:53.025Z,52.56
2023-03-03T19:12:52.630Z,52.06
2023-03-03T19:15:38.961Z,52.17
2023-03-03T19:18:16.467Z,52.35
2023-03-03T19:20:48.076Z,52.75
2023-03-03T19:23:18.534Z,52.39
2023-03-03T19:25:46.260Z,52.03
2023-03-03T19:28:37.258Z,52.80
2023-03-03T19:31:12.448Z,52.05
2023-03-03T19:33:54.578Z,52.56
2023-03-03T19:36:40.661Z,52.11
2023-03-03T19:39:53.787Z,52.05
2023-03-03T19:42:39.959Z,52.77
2023-03-03T19:45:19.709Z,52.55
2023-03-03T19:47:53.089Z,52.28
2023-03-03T19:50:32.918Z,52.58
2023-03-03T19:53:08.684Z,52.08
2023-03-03T19:55:49.667Z,52.22
2023-03-03T19:58:30.305Z,51.93
2023-03-03T20:01:08.568Z,52.39
2023-03-03T20:04:06.667Z,52.38
2023-03-03T20:06:45.069Z,52.62
2023-03-03T20:09:24.790Z,52.20
2023-03-03T20:12:04.323Z,52.71
2023-03-03T20:14:45.876Z,52.55
2023-03-03T20:17:44.608Z,52.13
2023-03-03T20:20:37.968Z,52.17
2023-03-03T20:23:21.627Z,52.39
2023-03-03T20:25:57.405Z,51.83
2023-03-03T20:28:55.141Z,52.13
2023-03-03T20:31:28.698Z,52.28
2023-03-03T20:34:10.741Z,51.75
2023-03-03T20:36:50.331Z,51.84
2023-03-03T20:39:22.993Z,51.85
2023-03-03T20:42:05.974Z,51.51
2023-03-03T20:44:50.109Z,51.90
2023-03-03T20:47:28.637Z,51.50
2023-03-03T20:50:19.957Z,51.43
2023-03-03T20:52:59.338Z,51.30
2023-03-03T20:55:39.849Z,51.56
2023-03-03T20:58:16.411Z,52.07
2023-03-03T21:00:53.067Z,51.67
2023-03-03T21:03:28.678Z,51.53
2023-03-03T21:06:00.166Z,52.21
2023-03-03T21:08:46.483Z,52.03
2023-03-03T21:11:16.357Z,51.49
2023-03-03T21:13:46.338Z,51.28
2023-03-03T21:16:30.406Z,51.43
2023-03-03T21:18:58.825Z,51.94
2023-03-03T21:21:28.110Z,51.41
2023-03-03T21:23:55.963Z,51.17
2023-03-03T21:26:54.449Z,51.95
2023-03-03T21:29:26.212Z,52.12
2023-03-03T21:31:56.358Z,51.55
2023-03-03T21:34:29.685Z,51.40
2023-03-03T21:36:58.309Z,52.07
2023-03-03T21:39:31.834Z,51.30
2023-03-03T21:42:02.719Z,51.94
2023-03-03T21:44:37.679Z,51.42
2023-03-03T21:47:07.353Z,51.42
2023-03-03T21:49:34.835Z,50.69
2023-03-03T21:52:03.002Z,50.99
2023-03-03T21:54:30.663Z,50.84
2023-03-03T21:56:58.351Z,50.91
2023-03-03T21:59:26.280Z,51.51
2023-03-03T22:01:55.283Z,50.82
2023-03-03T22:04:23.095Z,51.14
2023-03-03T22:06:52.865Z,50.75
2023-03-03T22:09:21.059Z,51.13
2023-03-03T22:11:48.964Z,51.27
2023-03-03T22:14:16.912Z,50.98
2023-03-03T22:16:44.592Z,50.83
2023-03-03T22:19:13.646Z,50.86
2023-03-03T22:21:42.090Z,51.68
2023-03-03T22:24:10.221Z,51.73
2023-03-03T22:26:37.872Z,51.32
2023-03-03T22:29:06.658Z,50.67
2023-03-03T22:31:34.569Z,50.60
2023-03-03T22:34:02.257Z,50.51
2023-03-03T22:36:32.176Z,51.13
2023-03-03T22:39:00.850Z,51.37
2023-03-03T22:41:28.511Z,51.04
2023-03-03T22:43:56.564Z,51.03
2023-03-03T22:46:24.639Z,50.14
2023-03-03T22:48:52.323Z,51.15
2023-03-03T22:51:22.536Z,50.58
2023-03-03T22:53:51.556Z,50.82
2023-03-03T22:56:19.207Z,50.57
2023-03-03T22:58:47.219Z,50.37
2023-03-03T23:01:14.874Z,50.35
2023-03-03T23:03:42.561Z,50.47
2023-03-03T23:06:10.806Z,49.93
2023-03-03T23:08:38.511Z,49.89
2023-03-03T23:11:07.655Z,50.94
2023-03-03T23:13:36.712Z,50.38
2023-03-03T23:16:04.691Z,49.84
2023-03-03T23:18:32.540Z,49.79
2023-03-03T23:21:00.789Z,49.61
2023-03-03T23:23:29.588Z,50.31
2023-03-03T23:25:57.817Z,50.43
2023-03-03T23:28:27.345Z,50.15
2023-03-03T23:30:54.974Z,50.22
2023-03-03T23:33:22.751Z,50.38
2023-03-03T23:35:50.963Z,49.58
2023-03-03T23:38:18.616Z,50.50
2023-03-03T23:40:47.597Z,50.62
2023-03-03T23:43:15.978Z,50.10
2023-03-03T23:45:44.990Z,50.87
2023-03-03T23:48:12.698Z,50.75
2023-03-03T23:50:41.133Z,50.92
2023-03-03T23:53:09.336Z,50.81
2023-03-03T23:55:37.615Z,50.85
2023-03-03T23:58:07.229Z,51.19
